Time;durP1;ratioP1;P1;durP2;ratioP2;P2;SDS_P1;SDS_P2;PMS_P1;PMS_P2;Temp;Humidity;BMP_temperature;BMP_pressure;BME280_temperature;BME280_humidity;BME280_pressure;Samples;Min_cycle;Max_cycle;Signal;HPM_P1;HPM_P2
2021/03/09 00:01:58;;;;;;;3.80;3.23;;;;;;;3.75;51.04;100933.19;5033406;28;20674;-76
2021/03/09 00:04:25;;;;;;;3.60;3.30;;;;;;;3.75;51.75;100936.63;5036690;28;20204;-77
2021/03/09 00:06:50;;;;;;;3.97;3.60;;;;;;;3.74;50.22;100936.59;5031033;28;20614;-77
2021/03/09 00:09:17;;;;;;;4.80;4.33;;;;;;;3.72;50.13;100933.09;5038484;28;20280;-77
2021/03/09 00:11:42;;;;;;;5.20;4.63;;;;;;;3.72;50.21;100933.97;5025858;28;20210;-75
2021/03/09 00:14:08;;;;;;;4.97;4.47;;;;;;;3.78;51.72;100934.06;5034526;28;20206;-79
2021/03/09 00:16:34;;;;;;;5.67;4.60;;;;;;;3.78;51.03;100931.50;5040561;28;20225;-76
2021/03/09 00:19:00;;;;;;;4.70;4.27;;;;;;;3.66;51.81;100931.28;5040497;28;20198;-77
2021/03/09 00:21:27;;;;;;;5.17;4.67;;;;;;;3.68;52.81;100931.31;5040592;28;20326;-77
2021/03/09 00:23:53;;;;;;;7.13;5.90;;;;;;;3.61;51.62;100929.47;5041330;28;20215;-76
2021/03/09 00:26:18;;;;;;;6.17;5.63;;;;;;;3.61;52.45;100927.78;5039938;28;20253;-77
2021/03/09 00:28:44;;;;;;;6.20;5.60;;;;;;;3.58;52.49;100920.81;5044793;28;20310;-78
2021/03/09 00:31:10;;;;;;;6.83;6.13;;;;;;;3.63;54.80;100930.34;5038779;28;20288;-78
2021/03/09 00:33:36;;;;;;;6.50;5.90;;;;;;;3.64;54.78;100925.22;5037124;28;20289;-79
2021/03/09 00:36:02;;;;;;;6.43;5.83;;;;;;;3.60;54.14;100920.00;5037416;28;20305;-78
2021/03/09 00:38:28;;;;;;;6.77;6.07;;;;;;;3.56;54.11;100921.66;5041147;28;20224;-79
2021/03/09 00:40:54;;;;;;;6.90;6.13;;;;;;;3.56;54.67;100925.09;5039940;28;20212;-79
2021/03/09 00:43:20;;;;;;;5.90;5.40;;;;;;;3.57;55.28;100920.81;5044350;28;20198;-79
2021/03/09 00:45:46;;;;;;;5.90;5.30;;;;;;;3.48;56.86;100915.50;5042253;28;20336;-78
2021/03/09 00:48:12;;;;;;;6.23;4.90;;;;;;;3.55;55.78;100925.09;5041595;28;20222;-77
2021/03/09 00:50:38;;;;;;;5.27;4.50;;;;;;;3.48;57.20;100920.66;5043319;28;20203;-78
2021/03/09 00:53:04;;;;;;;5.23;4.47;;;;;;;3.45;58.31;100918.88;5044692;28;20198;-78
2021/03/09 00:55:30;;;;;;;5.57;4.70;;;;;;;3.43;58.30;100914.53;5044565;28;20245;-78
2021/03/09 00:57:58;;;;;;;5.47;4.97;;;;;;;3.37;58.20;100912.72;5044265;28;20200;-77
2021/03/09 01:00:24;;;;;;;5.30;4.80;;;;;;;3.32;58.89;100911.75;5042359;28;20238;-79
2021/03/09 01:02:50;;;;;;;5.53;4.97;;;;;;;3.23;58.60;100904.75;5046558;28;20260;-77
2021/03/09 01:05:17;;;;;;;6.47;5.87;;;;;;;3.29;58.71;100909.13;5049376;28;20242;-77
2021/03/09 01:07:42;;;;;;;6.50;5.90;;;;;;;3.04;57.30;100902.66;5048092;28;20628;-76
2021/03/09 01:10:10;;;;;;;6.10;5.33;;;;;;;3.12;57.96;100894.19;5028599;28;20213;-77
2021/03/09 01:12:36;;;;;;;6.17;5.57;;;;;;;3.08;57.45;100896.72;5026166;28;20203;-79
2021/03/09 01:15:03;;;;;;;5.03;4.63;;;;;;;3.07;58.09;100897.53;5024828;28;20274;-78
2021/03/09 01:17:29;;;;;;;7.10;6.23;;;;;;;3.06;57.76;100898.38;5038848;28;20220;-77
2021/03/09 01:19:54;;;;;;;7.33;6.63;;;;;;;3.11;58.02;100891.59;5029463;28;20284;-79
2021/03/09 01:22:20;;;;;;;10.80;6.63;;;;;;;3.13;58.12;100890.78;5026856;28;20205;-79
2021/03/09 01:24:46;;;;;;;9.93;9.03;;;;;;;3.12;57.61;100890.75;5030937;28;20230;-79
2021/03/09 01:27:12;;;;;;;10.43;9.53;;;;;;;3.16;58.05;100885.69;5027865;28;20223;-79
2021/03/09 01:29:39;;;;;;;14.67;10.13;;;;;;;3.17;58.16;100882.28;5024311;28;20204;-79
2021/03/09 01:32:06;;;;;;;11.47;10.37;;;;;;;3.13;57.39;100882.16;5028463;28;20206;-79
2021/03/09 01:34:32;;;;;;;10.17;9.27;;;;;;;3.21;57.24;100872.88;5030918;28;20202;-78
2021/03/09 01:36:58;;;;;;;11.37;10.30;;;;;;;3.27;57.86;100873.00;5033385;28;20207;-77
2021/03/09 01:39:24;;;;;;;12.30;11.10;;;;;;;3.28;57.14;100866.13;5024018;28;20612;-79
2021/03/09 01:41:50;;;;;;;11.37;10.37;;;;;;;3.34;56.84;100866.22;5028290;28;20211;-80
2021/03/09 01:44:15;;;;;;;11.53;10.43;;;;;;;3.32;57.30;100865.31;5024277;28;20199;-80
2021/03/09 01:46:43;;;;;;;12.37;10.83;;;;;;;3.36;57.88;100856.78;5026719;28;20291;-80
2021/03/09 01:49:10;;;;;;;11.07;9.87;;;;;;;3.29;56.50;100850.66;5025831;28;20541;-79
2021/03/09 01:51:36;;;;;;;11.00;9.90;;;;;;;3.34;57.21;100850.75;5034756;28;20668;-80
2021/03/09 01:54:02;;;;;;;11.73;10.53;;;;;;;3.35;56.28;100855.03;5033537;28;20198;-75
2021/03/09 01:56:28;;;;;;;11.73;10.53;;;;;;;3.41;55.95;100854.28;5025712;28;20758;-79
2021/03/09 01:58:55;;;;;;;13.10;10.30;;;;;;;3.45;55.81;100851.81;5032448;28;20198;-79
2021/03/09 02:01:21;;;;;;;11.97;10.77;;;;;;;3.48;55.78;100848.38;5026628;28;20206;-78
2021/03/09 02:03:48;;;;;;;12.07;10.87;;;;;;;3.55;55.18;100850.25;5031771;28;20227;-79
2021/03/09 02:06:15;;;;;;;12.77;10.77;;;;;;;3.54;56.06;100851.94;5031874;28;20229;-79
2021/03/09 02:08:41;;;;;;;12.33;11.03;;;;;;;3.58;55.27;100845.97;5026468;28;20738;-80
2021/03/09 02:11:31;;;;;;;12.80;11.60;;;;;;;3.54;55.73;100846.75;5029449;28;20203;-78
2021/03/09 02:14:02;;;;;;;11.97;10.77;;;;;;;3.58;56.59;100839.94;5026066;28;20203;-80
2021/03/09 02:16:33;;;;;;;12.83;11.53;;;;;;;3.36;55.08;100833.56;5030511;28;20774;-79
2021/03/09 02:19:18;;;;;;;12.10;10.97;;;;;;;3.37;57.19;100835.31;5026599;28;20208;-80
2021/03/09 02:22:03;;;;;;;11.63;10.53;;;;;;;3.39;57.57;100836.22;5027833;28;20207;-79
2021/03/09 02:24:59;;;;;;;12.23;10.93;;;;;;;3.35;57.75;100835.28;5025464;28;20207;-80
2021/03/09 02:27:40;;;;;;;11.23;10.13;;;;;;;3.41;57.61;100829.38;5030686;28;20226;-80
2021/03/09 02:30:10;;;;;;;11.80;10.70;;;;;;;3.31;57.98;100830.03;5024993;28;20206;-78
2021/03/09 02:32:40;;;;;;;12.17;11.07;;;;;;;3.28;58.70;100825.69;5028552;28;20202;-79
2021/03/09 02:35:10;;;;;;;13.17;10.63;;;;;;;3.30;57.62;100821.44;5033497;28;20218;-77
2021/03/09 02:37:38;;;;;;;10.80;9.70;;;;;;;3.38;57.44;100817.25;5031459;28;20206;-78
2021/03/09 02:40:06;;;;;;;13.43;10.90;;;;;;;3.40;57.43;100814.72;5026340;28;20323;-80
2021/03/09 02:42:36;;;;;;;14.80;11.57;;;;;;;3.41;58.17;100815.56;5036630;28;20203;-78
2021/03/09 02:45:03;;;;;;;11.30;10.30;;;;;;;3.29;56.85;100809.38;5022815;28;20305;-80
2021/03/09 02:47:31;;;;;;;11.73;10.40;;;;;;;3.26;57.39;100806.75;5035828;28;20717;-79
2021/03/09 02:49:59;;;;;;;11.43;10.33;;;;;;;3.22;57.20;100802.38;5026408;28;20206;-77
2021/03/09 02:52:27;;;;;;;12.33;11.13;;;;;;;3.20;56.11;100805.78;5027408;28;20210;-76
2021/03/09 02:54:55;;;;;;;13.43;12.03;;;;;;;3.10;55.93;100812.50;5031956;28;20230;-76
2021/03/09 02:57:22;;;;;;;11.93;10.77;;;;;;;3.16;57.58;100805.72;5025434;28;20192;-77
2021/03/09 02:59:49;;;;;;;11.90;10.83;;;;;;;3.16;56.83;100800.56;5027064;28;20211;-77
2021/03/09 03:02:17;;;;;;;12.63;11.40;;;;;;;3.23;56.49;100800.66;5028002;28;20690;-77
2021/03/09 03:04:48;;;;;;;12.73;10.93;;;;;;;3.25;56.39;100793.81;5021872;28;20770;-77
2021/03/09 03:07:15;;;;;;;12.30;11.10;;;;;;;3.31;57.13;100788.75;5028322;28;20218;-76
2021/03/09 03:09:42;;;;;;;13.07;11.37;;;;;;;3.24;55.92;100797.25;5023388;28;20210;-77
2021/03/09 03:12:11;;;;;;;12.40;11.10;;;;;;;3.30;57.11;100790.47;5052967;22;20258;-84
2021/03/09 03:14:37;;;;;;;12.37;11.17;;;;;;;3.34;58.01;100786.22;5073299;28;20205;-84
2021/03/09 03:17:04;;;;;;;12.30;11.10;;;;;;;3.40;57.92;100788.91;5072639;28;20205;-83
2021/03/09 03:19:31;;;;;;;13.53;12.20;;;;;;;3.39;57.81;100789.78;5077793;28;20541;-84
2021/03/09 03:21:58;;;;;;;12.67;11.37;;;;;;;3.31;57.14;100781.91;5063155;28;20236;-84
2021/03/09 03:24:26;;;;;;;12.73;11.43;;;;;;;3.37;58.18;100779.41;5078848;28;20212;-84
2021/03/09 03:26:53;;;;;;;13.30;12.03;;;;;;;3.39;58.19;100782.03;5069874;28;20221;-83
2021/03/09 03:29:20;;;;;;;12.97;11.67;;;;;;;3.37;58.77;100771.69;5078490;28;20203;-85
2021/03/09 03:31:47;;;;;;;13.30;11.90;;;;;;;3.36;59.36;100775.09;5063362;28;20270;-83
2021/03/09 03:34:13;;;;;;;13.17;11.87;;;;;;;3.30;59.82;100774.13;5078911;28;20201;-84
2021/03/09 03:36:39;;;;;;;12.07;10.87;;;;;;;3.37;59.36;100776.84;5064413;28;20734;-85
2021/03/09 03:39:07;;;;;;;11.40;10.20;;;;;;;3.31;59.61;100773.28;5079353;28;20216;-84
2021/03/09 03:41:33;;;;;;;12.63;11.43;;;;;;;3.30;59.01;100767.25;5078373;28;20232;-84
2021/03/09 03:43:59;;;;;;;12.67;11.47;;;;;;;3.30;57.04;100772.41;5079811;28;20200;-84
2021/03/09 03:46:25;;;;;;;13.60;12.30;;;;;;;3.30;58.71;100768.97;5079362;28;20197;-81
2021/03/09 03:48:51;;;;;;;16.40;11.97;;;;;;;3.33;59.12;100769.91;5070105;28;20206;-80
2021/03/09 03:51:17;;;;;;;13.90;12.50;;;;;;;3.29;58.96;100767.22;5065995;28;20233;-84
2021/03/09 03:53:50;;;;;;;16.20;13.23;;;;;;;3.13;57.47;100769.56;5070237;28;20216;-81
2021/03/09 03:56:26;;;;;;;14.27;12.77;;;;;;;3.15;59.55;100760.16;5067730;28;20213;-83
2021/03/09 03:58:55;;;;;;;12.93;11.63;;;;;;;3.14;60.59;100757.53;5075997;28;20208;-82
2021/03/09 04:01:24;;;;;;;12.27;11.07;;;;;;;3.20;60.47;100751.63;5067001;28;20198;-81
2021/03/09 04:03:53;;;;;;;13.67;12.27;;;;;;;3.17;60.83;100755.00;5063852;28;20209;-83
2021/03/09 04:06:23;;;;;;;14.40;12.23;;;;;;;3.17;61.40;100750.72;5078926;28;20226;-83
2021/03/09 04:08:49;;;;;;;12.23;11.10;;;;;;;3.15;60.89;100749.84;5071046;28;20566;-83
2021/03/09 04:11:17;;;;;;;13.90;12.50;;;;;;;3.14;60.36;100747.22;5065739;28;20198;-81
2021/03/09 04:13:44;;;;;;;13.53;12.20;;;;;;;3.17;60.78;100747.25;5062034;28;20210;-82
2021/03/09 04:16:12;;;;;;;12.80;11.60;;;;;;;3.20;60.20;100742.16;5074919;28;20209;-82
2021/03/09 04:18:39;;;;;;;13.90;12.47;;;;;;;3.23;61.25;100747.38;5075175;28;20595;-81
2021/03/09 04:21:07;;;;;;;12.60;11.30;;;;;;;3.20;62.17;100742.16;5076434;28;20223;-83
2021/03/09 04:23:34;;;;;;;13.27;11.97;;;;;;;3.16;61.77;100738.66;5075446;28;20245;-80
2021/03/09 04:26:00;;;;;;;13.97;12.60;;;;;;;3.21;60.60;100743.00;5066914;28;20665;-83
2021/03/09 04:28:27;;;;;;;14.83;11.90;;;;;;;3.16;61.01;100733.50;5070403;28;20210;-81
2021/03/09 04:30:54;;;;;;;13.37;12.00;;;;;;;3.18;59.97;100738.69;5063887;28;20206;-83
2021/03/09 04:33:22;;;;;;;14.63;13.13;;;;;;;3.21;60.29;100731.00;5074771;28;20232;-81
2021/03/09 04:35:48;;;;;;;13.57;12.17;;;;;;;3.27;60.00;100735.38;5077047;28;20257;-83
2021/03/09 04:38:14;;;;;;;14.27;12.73;;;;;;;3.24;59.40;100728.47;5078514;28;20227;-82
2021/03/09 04:40:41;;;;;;;13.03;11.77;;;;;;;3.20;59.68;100730.97;5079919;28;20200;-83
2021/03/09 04:43:07;;;;;;;15.03;12.43;;;;;;;3.21;60.25;100738.75;5072277;28;20271;-82
2021/03/09 04:45:33;;;;;;;16.63;13.03;;;;;;;3.15;60.98;100743.78;5069154;28;20211;-81
2021/03/09 04:48:01;;;;;;;13.47;12.13;;;;;;;3.24;60.52;100733.63;5073078;28;20209;-81
2021/03/09 04:50:28;;;;;;;14.40;12.90;;;;;;;3.27;60.30;100744.00;5071638;28;20206;-82
2021/03/09 04:52:54;;;;;;;14.93;12.60;;;;;;;3.25;60.19;100732.78;5081600;28;20229;-83
2021/03/09 04:55:22;;;;;;;13.40;12.03;;;;;;;3.22;60.61;100735.31;5075167;28;20203;-83
2021/03/09 04:57:48;;;;;;;14.10;12.63;;;;;;;3.18;59.80;100729.22;5071837;28;21697;-81
2021/03/09 05:00:16;;;;;;;14.33;12.60;;;;;;;3.22;60.14;100731.88;5081578;28;20201;-83
2021/03/09 05:02:44;;;;;;;13.63;12.03;;;;;;;3.24;59.22;100731.03;5073156;28;20230;-82
2021/03/09 05:05:12;;;;;;;13.93;12.00;;;;;;;3.20;60.14;100728.41;5073562;28;20199;-83
2021/03/09 05:07:39;;;;;;;12.23;11.03;;;;;;;3.22;61.56;100730.16;5075132;28;20212;-81
2021/03/09 05:10:06;;;;;;;15.00;12.03;;;;;;;3.23;60.53;100728.44;5061265;28;20233;-82
2021/03/09 05:12:32;;;;;;;13.67;12.37;;;;;;;3.21;60.45;100724.97;5074204;28;20249;-83
2021/03/09 05:14:58;;;;;;;16.57;12.30;;;;;;;3.21;60.36;100728.44;5069076;28;20288;-81
2021/03/09 05:17:24;;;;;;;12.70;11.47;;;;;;;3.25;60.49;100730.22;5065359;28;20596;-81
2021/03/09 05:19:50;;;;;;;12.87;11.57;;;;;;;3.25;60.08;100726.75;5060439;28;20208;-80
2021/03/09 05:22:17;;;;;;;13.70;12.30;;;;;;;3.25;61.18;100729.31;5067226;28;20223;-80
2021/03/09 05:24:43;;;;;;;14.73;12.07;;;;;;;3.29;60.19;100721.66;5067484;28;20211;-81
2021/03/09 05:27:09;;;;;;;11.93;10.50;;;;;;;3.32;59.67;100719.13;5069069;28;20203;-80
2021/03/09 05:29:35;;;;;;;13.30;11.90;;;;;;;3.29;60.31;100713.03;5074964;28;20193;-82
2021/03/09 05:32:01;;;;;;;12.50;11.30;;;;;;;3.35;60.39;100724.34;5075736;28;20217;-80
2021/03/09 05:34:27;;;;;;;13.37;11.97;;;;;;;3.31;61.02;100732.00;5072896;28;20197;-82
2021/03/09 05:36:53;;;;;;;12.83;11.23;;;;;;;3.28;61.06;100729.38;5062075;28;20254;-81
2021/03/09 05:39:20;;;;;;;13.73;12.43;;;;;;;3.33;60.38;100731.19;5072658;28;20202;-81
2021/03/09 05:41:45;;;;;;;12.43;10.93;;;;;;;3.32;60.97;100731.16;5065249;28;20315;-81
2021/03/09 05:44:12;;;;;;;12.57;11.27;;;;;;;3.29;60.57;100737.16;5069432;28;20251;-80
2021/03/09 05:46:38;;;;;;;11.07;9.97;;;;;;;3.22;60.78;100731.88;5073916;28;20214;-82
2021/03/09 05:49:04;;;;;;;11.90;10.70;;;;;;;3.24;61.36;100725.88;5067170;28;20198;-80
2021/03/09 05:51:30;;;;;;;12.00;9.90;;;;;;;3.23;60.92;100736.16;5065642;28;20206;-81
2021/03/09 05:53:56;;;;;;;14.57;10.33;;;;;;;3.29;61.66;100733.69;5074347;28;20202;-81
2021/03/09 05:56:24;;;;;;;10.87;9.73;;;;;;;3.35;61.84;100737.25;5067605;28;20209;-82
2021/03/09 05:58:50;;;;;;;13.97;11.13;;;;;;;3.39;61.90;100738.16;5074582;28;20230;-80
2021/03/09 06:01:16;;;;;;;14.30;10.30;;;;;;;3.31;62.09;100739.72;5062564;28;20205;-82
2021/03/09 06:03:42;;;;;;;11.33;10.13;;;;;;;3.34;61.02;100737.22;5075328;28;20205;-80
2021/03/09 06:06:08;;;;;;;14.93;10.43;;;;;;;3.34;61.56;100735.50;5073294;28;20202;-84
2021/03/09 06:08:34;;;;;;;11.63;10.43;;;;;;;3.18;63.30;100734.38;5058041;28;20713;-79
2021/03/09 06:11:13;;;;;;;11.60;10.40;;;;;;;3.23;64.48;100733.59;5075994;28;20206;-82
2021/03/09 06:13:40;;;;;;;12.27;10.93;;;;;;;3.22;64.77;100729.28;5067891;28;20633;-82
2021/03/09 06:16:06;;;;;;;11.60;10.40;;;;;;;3.21;64.52;100724.97;5074244;28;20213;-83
2021/03/09 06:18:33;;;;;;;12.90;11.60;;;;;;;3.20;66.69;100737.00;5067340;28;20290;-83
2021/03/09 06:21:10;;;;;;;14.67;11.60;;;;;;;3.12;66.99;100733.44;5064461;28;20678;-82
2021/03/09 06:23:36;;;;;;;16.20;12.37;;;;;;;3.11;67.94;100729.09;5068187;28;20232;-82
2021/03/09 06:26:03;;;;;;;12.77;10.93;;;;;;;3.16;67.28;100730.06;5068169;28;20197;-81
2021/03/09 06:28:30;;;;;;;13.77;12.47;;;;;;;3.20;67.80;100725.81;5070582;28;20205;-81
2021/03/09 06:30:59;;;;;;;19.00;12.43;;;;;;;3.08;68.77;100727.34;5070278;28;20199;-82
2021/03/09 06:33:29;;;;;;;13.40;12.00;;;;;;;3.04;68.52;100723.00;5067249;28;20281;-81
2021/03/09 06:35:57;;;;;;;14.73;13.17;;;;;;;3.02;68.39;100727.25;5068738;28;20197;-80
2021/03/09 06:38:25;;;;;;;13.17;11.77;;;;;;;3.03;69.18;100725.53;5066731;28;20235;-80
2021/03/09 06:41:12;;;;;;;14.13;12.47;;;;;;;2.96;69.98;100728.00;5070109;28;20205;-80
2021/03/09 06:43:39;;;;;;;14.87;13.30;;;;;;;2.99;71.01;100727.19;5068428;28;20693;-81
2021/03/09 06:46:13;;;;;;;13.70;11.97;;;;;;;2.91;69.87;100727.06;5070115;28;20201;-82
2021/03/09 06:48:40;;;;;;;17.03;13.27;;;;;;;2.93;70.24;100722.81;5066750;28;20204;-81
2021/03/09 06:51:23;;;;;;;13.40;11.90;;;;;;;2.99;71.14;100722.03;5065178;28;20216;-81
2021/03/09 06:53:58;;;;;;;16.00;12.37;;;;;;;2.96;70.37;100722.84;5065044;28;20204;-82
2021/03/09 06:56:26;;;;;;;16.20;13.33;;;;;;;2.87;72.89;100724.41;5061831;28;20204;-82
2021/03/09 06:58:51;;;;;;;14.20;12.80;;;;;;;2.90;71.36;100729.63;5064632;28;20277;-81
2021/03/09 07:01:18;;;;;;;13.20;11.90;;;;;;;2.89;72.05;100720.16;5062074;28;20204;-81
2021/03/09 07:03:44;;;;;;;14.03;12.63;;;;;;;2.88;71.19;100724.44;5064755;28;20655;-80
2021/03/09 07:06:10;;;;;;;15.47;12.07;;;;;;;2.86;71.79;100720.97;5061236;28;20703;-83
2021/03/09 07:08:36;;;;;;;13.27;11.50;;;;;;;2.81;73.41;100732.03;5064734;28;20216;-83
2021/03/09 07:11:02;;;;;;;15.83;11.20;;;;;;;2.81;73.33;100725.16;5062711;28;20711;-81
2021/03/09 07:13:29;;;;;;;16.27;12.73;;;;;;;2.87;72.84;100721.84;5063139;28;20282;-82
2021/03/09 07:15:56;;;;;;;17.17;12.17;;;;;;;2.81;73.45;100720.00;5060668;28;20194;-79
2021/03/09 07:18:25;;;;;;;15.30;12.53;;;;;;;2.85;72.73;100721.78;5060129;28;20232;-83
2021/03/09 07:20:52;;;;;;;16.37;12.77;;;;;;;2.84;73.45;100726.94;5069662;28;20204;-81
2021/03/09 07:23:20;;;;;;;14.80;12.93;;;;;;;2.83;73.20;100726.06;5053499;28;20226;-82
2021/03/09 07:25:49;;;;;;;15.20;12.97;;;;;;;2.86;73.84;100733.00;5061061;28;20198;-82
2021/03/09 07:28:18;;;;;;;13.87;12.33;;;;;;;2.83;72.72;100730.34;5058613;28;20201;-81
2021/03/09 07:30:46;;;;;;;14.27;12.77;;;;;;;2.77;74.55;100724.28;5070813;28;20213;-82
2021/03/09 07:33:12;;;;;;;14.33;12.83;;;;;;;2.72;74.35;100727.59;5071146;28;20237;-80
2021/03/09 07:35:40;;;;;;;15.80;13.03;;;;;;;2.72;74.20;100723.31;5063980;28;20624;-83
2021/03/09 07:38:07;;;;;;;13.77;12.23;;;;;;;2.70;74.40;100735.31;5058374;28;20220;-81
2021/03/09 07:40:36;;;;;;;14.83;13.27;;;;;;;2.67;74.29;100719.78;5063812;28;20733;-82
2021/03/09 07:43:02;;;;;;;15.10;13.50;;;;;;;2.68;74.79;100723.25;5062221;28;20700;-80
2021/03/09 07:45:30;;;;;;;14.07;12.30;;;;;;;2.71;74.72;100721.56;5067340;28;20201;-81
2021/03/09 07:47:58;;;;;;;15.40;13.37;;;;;;;2.75;74.49;100723.34;5066425;28;20197;-80
2021/03/09 07:50:30;;;;;;;14.87;12.90;;;;;;;2.72;74.46;100720.72;5059916;28;20202;-80
2021/03/09 07:53:07;;;;;;;13.40;11.80;;;;;;;2.71;74.81;100713.81;5063901;28;20225;-80
2021/03/09 07:55:34;;;;;;;14.23;12.27;;;;;;;2.70;75.08;100714.69;5064592;28;20204;-81
2021/03/09 07:58:19;;;;;;;12.57;11.17;;;;;;;2.78;74.38;100722.56;5064902;28;20418;-81
2021/03/09 08:00:57;;;;;;;13.70;12.33;;;;;;;2.67;75.24;100718.91;5058923;28;20250;-81
2021/03/09 08:03:25;;;;;;;14.13;12.57;;;;;;;2.65;75.07;100716.31;5061783;28;20234;-80
2021/03/09 08:05:54;;;;;;;15.47;11.93;;;;;;;2.66;75.18;100718.06;5060629;28;20209;-79
2021/03/09 08:08:43;;;;;;;13.17;11.60;;;;;;;2.67;74.99;100709.47;5065584;28;20217;-80
2021/03/09 08:11:39;;;;;;;13.30;12.00;;;;;;;2.68;75.01;100710.34;5057921;28;20665;-79
2021/03/09 08:14:20;;;;;;;14.23;11.73;;;;;;;2.72;75.52;100718.16;5066883;28;20720;-79
2021/03/09 08:16:47;;;;;;;14.03;12.20;;;;;;;2.68;75.98;100708.63;5072630;28;20209;-80
2021/03/09 08:19:33;;;;;;;15.70;13.97;;;;;;;2.68;75.67;100710.34;5071550;28;20696;-79
2021/03/09 08:22:00;;;;;;;17.63;12.47;;;;;;;2.59;76.14;100706.75;5063127;28;20226;-79
2021/03/09 08:24:56;;;;;;;14.90;12.53;;;;;;;2.60;76.35;100702.47;5074975;28;20215;-80
2021/03/09 08:27:40;;;;;;;14.17;12.67;;;;;;;2.63;76.19;100702.53;5062711;28;20198;-79
2021/03/09 08:30:27;;;;;;;14.33;12.87;;;;;;;2.64;76.92;100704.28;5071342;28;20346;-80
2021/03/09 08:32:53;;;;;;;15.07;13.57;;;;;;;2.66;76.71;100697.44;5070875;28;20231;-81
2021/03/09 08:35:37;;;;;;;12.43;11.23;;;;;;;2.69;76.40;100694.88;5073308;28;20201;-83
2021/03/09 08:38:17;;;;;;;14.07;12.50;;;;;;;2.63;77.00;100704.25;5068890;28;20374;-80
2021/03/09 08:41:10;;;;;;;14.87;13.37;;;;;;;2.57;77.58;100697.25;5066139;28;20195;-78
2021/03/09 08:43:38;;;;;;;13.70;12.30;;;;;;;2.64;77.06;100693.97;5065121;28;20608;-80
2021/03/09 08:46:09;;;;;;;15.97;12.70;;;;;;;2.69;77.33;100699.19;5074690;28;20202;-80
2021/03/09 08:48:47;;;;;;;14.70;12.70;;;;;;;2.71;76.80;100690.63;5069237;28;20200;-79
2021/03/09 08:51:45;;;;;;;13.20;11.90;;;;;;;2.70;77.10;100693.22;5068814;28;20252;-80
2021/03/09 08:54:38;;;;;;;13.87;12.43;;;;;;;2.76;77.24;100698.47;5068208;28;20206;-79
2021/03/09 08:57:08;;;;;;;15.27;12.60;;;;;;;2.75;77.42;100692.41;5065519;28;20205;-79
2021/03/09 08:59:35;;;;;;;14.93;13.37;;;;;;;2.85;76.38;100697.75;5065106;28;20257;-79
2021/03/09 09:02:07;;;;;;;15.33;13.57;;;;;;;2.87;76.81;100685.75;5071278;28;20221;-81
2021/03/09 09:04:33;;;;;;;16.60;13.47;;;;;;;2.92;76.23;100691.84;5065796;28;20240;-80
2021/03/09 09:07:00;;;;;;;14.73;13.37;;;;;;;2.93;76.26;100685.84;5070375;28;20208;-80
2021/03/09 09:09:31;;;;;;;17.20;13.23;;;;;;;2.94;76.72;100688.44;5069688;28;20569;-81
2021/03/09 09:11:57;;;;;;;15.70;13.90;;;;;;;2.92;76.96;100684.13;5069181;28;20286;-80
2021/03/09 09:14:24;;;;;;;14.00;12.60;;;;;;;2.86;77.36;100681.44;5069148;28;20293;-80
2021/03/09 09:16:53;;;;;;;15.90;14.13;;;;;;;2.94;77.07;100679.84;5070859;28;20208;-81
2021/03/09 09:19:19;;;;;;;14.87;12.80;;;;;;;2.92;77.73;100684.97;5066588;28;20226;-81
2021/03/09 09:21:47;;;;;;;15.40;13.03;;;;;;;2.97;77.32;100688.50;5065461;28;20291;-80
2021/03/09 09:24:23;;;;;;;15.43;13.90;;;;;;;3.04;77.60;100676.56;5062119;28;20198;-80
2021/03/09 09:27:01;;;;;;;14.37;12.97;;;;;;;3.06;77.21;100680.03;5061730;28;20268;-80
2021/03/09 09:29:29;;;;;;;14.63;13.07;;;;;;;2.93;77.63;100676.41;5069068;28;20205;-81
2021/03/09 09:31:59;;;;;;;15.07;13.57;;;;;;;2.94;77.13;100683.28;5064761;28;20249;-79
2021/03/09 09:34:33;;;;;;;14.00;12.67;;;;;;;2.97;77.26;100682.47;5067376;28;20204;-80
2021/03/09 09:37:07;;;;;;;15.70;13.43;;;;;;;2.96;77.75;100679.03;5061442;28;20684;-81
2021/03/09 09:39:33;;;;;;;13.60;12.30;;;;;;;3.02;78.12;100688.56;5056705;28;20195;-80
2021/03/09 09:41:59;;;;;;;14.23;12.83;;;;;;;3.02;78.13;100673.09;5067254;28;20650;-79
2021/03/09 09:44:25;;;;;;;14.80;13.40;;;;;;;2.99;78.25;100683.34;5069464;28;20236;-79
2021/03/09 09:49:32;;;;;;;14.40;12.90;;;;;;;3.00;77.95;100673.94;5043543;28;20218;-76
2021/03/09 09:51:58;;;;;;;16.03;13.90;;;;;;;3.05;78.75;100674.84;5049152;28;20207;-77
2021/03/09 09:54:24;;;;;;;14.03;12.57;;;;;;;3.03;78.82;100666.22;5049312;28;20208;-76
2021/03/09 09:56:50;;;;;;;15.83;14.40;;;;;;;3.04;78.28;100675.72;5044140;28;20657;-76
2021/03/09 09:59:25;;;;;;;13.93;12.53;;;;;;;3.15;77.89;100672.44;5050895;28;20227;-77
2021/03/09 10:01:51;;;;;;;14.97;13.47;;;;;;;3.18;78.18;100669.03;5044104;28;20214;-76
2021/03/09 10:04:17;;;;;;;14.60;12.83;;;;;;;3.25;77.68;100663.13;5047993;28;20238;-77
2021/03/09 10:06:45;;;;;;;15.87;14.20;;;;;;;3.26;77.87;100664.84;5046305;28;20219;-75
2021/03/09 10:09:16;;;;;;;14.97;13.47;;;;;;;3.18;78.37;100667.31;5052206;28;20238;-77
2021/03/09 10:11:46;;;;;;;15.73;14.23;;;;;;;3.22;78.64;100670.81;5047745;28;20249;-76
2021/03/09 10:14:12;;;;;;;14.20;12.80;;;;;;;3.30;78.43;100670.94;5047976;28;20215;-75
2021/03/09 10:16:39;;;;;;;14.87;13.53;;;;;;;3.29;79.72;100661.44;5053304;28;20202;-75
2021/03/09 10:19:05;;;;;;;15.00;13.40;;;;;;;3.36;78.80;100668.44;5053330;28;20707;-77
2021/03/09 10:21:36;;;;;;;14.97;13.47;;;;;;;3.37;78.08;100667.59;5049349;28;20204;-76
2021/03/09 10:24:05;;;;;;;14.67;13.13;;;;;;;3.46;77.51;100661.69;5046639;28;20293;-76
2021/03/09 10:26:34;;;;;;;15.23;13.67;;;;;;;3.43;78.60;100666.81;5049135;28;20703;-76
2021/03/09 10:29:11;;;;;;;14.37;12.93;;;;;;;3.50;78.13;100664.31;5052301;28;20646;-76
2021/03/09 10:31:45;;;;;;;15.87;14.27;;;;;;;3.32;78.16;100664.09;5045415;28;20188;-76
2021/03/09 10:34:12;;;;;;;15.70;14.20;;;;;;;3.40;78.96;100656.47;5049690;28;20202;-75
2021/03/09 10:36:52;;;;;;;16.23;13.17;;;;;;;3.40;79.81;100667.63;5052131;28;20199;-75
2021/03/09 10:39:21;;;;;;;15.43;13.90;;;;;;;3.47;79.64;100661.72;5049848;28;20639;-73
2021/03/09 10:41:47;;;;;;;15.40;14.00;;;;;;;3.51;78.78;100658.34;5048583;28;20662;-76
2021/03/09 10:44:27;;;;;;;15.70;14.10;;;;;;;3.47;79.19;100656.56;5049810;28;20198;-76
2021/03/09 10:46:53;;;;;;;16.27;14.60;;;;;;;3.42;79.04;100658.19;5050318;28;20205;-77
2021/03/09 10:49:19;;;;;;;16.00;14.40;;;;;;;3.37;80.07;100655.56;5048848;28;20227;-77
2021/03/09 10:51:44;;;;;;;15.83;14.03;;;;;;;3.26;79.45;100661.41;5048991;28;20256;-77
2021/03/09 10:54:10;;;;;;;15.27;13.63;;;;;;;3.25;79.62;100650.25;5051844;28;20836;-75
2021/03/09 10:56:39;;;;;;;16.13;14.37;;;;;;;3.17;79.44;100644.97;5046585;28;20569;-76
2021/03/09 10:59:04;;;;;;;14.20;12.80;;;;;;;3.29;78.97;100656.28;5048651;28;20284;-76
2021/03/09 11:01:30;;;;;;;13.93;12.57;;;;;;;3.36;79.28;100650.38;5049506;28;20288;-76
2021/03/09 11:03:56;;;;;;;14.80;13.30;;;;;;;3.43;78.39;100654.78;5049812;28;20198;-76
2021/03/09 11:06:22;;;;;;;15.10;13.70;;;;;;;3.46;79.11;100649.66;5049934;28;20311;-76
2021/03/09 11:08:48;;;;;;;15.93;14.27;;;;;;;3.47;78.86;100641.09;5048928;28;20624;-76
2021/03/09 11:11:14;;;;;;;15.00;13.57;;;;;;;3.52;79.14;100646.28;5049504;28;20222;-76
2021/03/09 11:13:43;;;;;;;15.33;13.93;;;;;;;3.49;80.01;100646.22;5049800;28;20253;-76
2021/03/09 11:16:08;;;;;;;14.83;13.33;;;;;;;3.54;79.01;100645.47;5049975;28;20295;-75
2021/03/09 11:18:34;;;;;;;14.97;13.67;;;;;;;3.49;79.66;100644.53;5050292;28;20231;-76
2021/03/09 11:21:00;;;;;;;15.83;14.33;;;;;;;3.54;79.40;100642.88;5048510;28;20202;-75
2021/03/09 11:23:26;;;;;;;15.03;13.43;;;;;;;3.54;80.36;100639.44;5048023;28;20572;-75
2021/03/09 11:25:52;;;;;;;15.17;13.77;;;;;;;3.63;80.50;100641.25;5050191;28;20202;-76
2021/03/09 11:28:18;;;;;;;15.00;13.53;;;;;;;3.67;80.21;100637.91;5045002;28;20216;-76
2021/03/09 11:30:44;;;;;;;14.33;13.03;;;;;;;3.73;80.68;100631.06;5051119;28;20214;-76